Time;durP1;ratioP1;P1;durP2;ratioP2;P2;SDS_P1;SDS_P2;PMS_P1;PMS_P2;Temp;Humidity;BMP_temperature;BMP_pressure;BME280_temperature;BME280_humidity;BME280_pressure;Samples;Min_cycle;Max_cycle;Signal;HPM_P1;HPM_P2
2022/06/17 00:01:25;;;;;;;6.43;3.45;;;;;;;15.52;100.00;102280.50;10215650;28;20133;-64
2022/06/17 00:06:25;;;;;;;9.85;3.72;;;;;;;15.46;100.00;102281.78;10219287;28;20041;-63
2022/06/17 00:11:31;;;;;;;9.13;3.92;;;;;;;15.43;100.00;102282.38;10221273;28;20466;-63
2022/06/17 00:16:29;;;;;;;10.32;4.32;;;;;;;15.38;100.00;102285.25;10220341;28;20069;-62
2022/06/17 00:21:29;;;;;;;16.27;4.38;;;;;;;15.35;100.00;102261.91;10221419;28;20053;-63
2022/06/17 00:26:26;;;;;;;7.43;3.40;;;;;;;15.27;100.00;102271.72;10217159;28;20049;-63
2022/06/17 00:31:23;;;;;;;8.85;3.80;;;;;;;15.20;100.00;102273.28;10223807;28;20065;-63
2022/06/17 00:36:19;;;;;;;11.18;5.03;;;;;;;15.13;100.00;102265.44;10215388;28;20045;-63
2022/06/17 00:41:29;;;;;;;8.48;4.80;;;;;;;15.07;100.00;102266.69;10224065;28;20141;-64
2022/06/17 00:46:36;;;;;;;8.75;4.97;;;;;;;15.02;100.00;102266.81;10221169;28;20049;-63
2022/06/17 00:51:44;;;;;;;6.65;3.95;;;;;;;14.93;100.00;102275.81;10215867;28;20041;-64
2022/06/17 00:56:40;;;;;;;10.02;4.28;;;;;;;14.87;100.00;102277.03;10222614;28;20049;-63
2022/06/17 01:01:44;;;;;;;8.98;4.28;;;;;;;14.80;100.00;102282.16;10220298;28;20075;-63
2022/06/17 01:06:48;;;;;;;9.70;4.47;;;;;;;14.73;100.00;102271.53;10227617;28;20084;-63
2022/06/17 01:11:44;;;;;;;8.38;3.95;;;;;;;14.68;100.00;102285.44;10229061;28;20757;-64
2022/06/17 01:16:43;;;;;;;7.10;4.00;;;;;;;14.65;100.00;102296.25;10228489;28;20069;-64
2022/06/17 01:21:47;;;;;;;9.48;4.13;;;;;;;14.61;100.00;102295.22;10235510;28;20049;-63
2022/06/17 01:26:45;;;;;;;8.52;4.28;;;;;;;14.58;100.00;102301.34;10226742;28;20148;-63
2022/06/17 01:31:47;;;;;;;8.80;4.65;;;;;;;14.57;100.00;102280.44;10225642;28;20053;-63
2022/06/17 01:36:45;;;;;;;7.97;3.95;;;;;;;14.56;100.00;102298.09;10225621;28;20080;-64
2022/06/17 01:41:42;;;;;;;9.90;4.15;;;;;;;14.52;100.00;102304.16;10233208;28;20505;-64
2022/06/17 01:46:42;;;;;;;7.57;4.00;;;;;;;14.48;100.00;102303.16;10226597;28;20053;-66
2022/06/17 01:51:42;;;;;;;9.88;4.85;;;;;;;14.40;100.00;102314.06;10229089;28;20053;-66
2022/06/17 01:56:42;;;;;;;8.93;4.35;;;;;;;14.37;100.00;102312.72;10224760;28;20548;-66
2022/06/17 02:01:42;;;;;;;7.53;4.30;;;;;;;14.32;100.00;102315.59;10225962;28;20104;-66
2022/06/17 02:06:57;;;;;;;7.70;4.30;;;;;;;14.33;100.00;102311.69;10224754;28;20049;-66
2022/06/17 02:11:55;;;;;;;9.07;4.97;;;;;;;14.29;100.00;102316.97;10226602;28;20076;-66
2022/06/17 02:16:54;;;;;;;6.82;3.95;;;;;;;14.27;100.00;102310.16;10222626;28;20103;-66
2022/06/17 02:21:57;;;;;;;10.95;4.40;;;;;;;14.30;100.00;102326.06;10227783;28;20045;-65
2022/06/17 02:26:55;;;;;;;7.80;4.07;;;;;;;14.28;100.00;102322.81;10228958;28;20052;-64
2022/06/17 02:31:54;;;;;;;9.18;4.85;;;;;;;14.25;100.00;102327.00;10219287;28;20046;-64
2022/06/17 02:37:02;;;;;;;9.35;5.70;;;;;;;14.15;100.00;102315.34;10225468;28;20084;-64
2022/06/17 02:41:58;;;;;;;9.52;5.38;;;;;;;14.17;100.00;102324.13;10228880;28;20096;-64
2022/06/17 02:46:56;;;;;;;9.93;5.38;;;;;;;14.12;100.00;102307.72;10230468;28;20557;-65
2022/06/17 02:51:53;;;;;;;9.95;5.47;;;;;;;14.06;100.00;102307.81;10227179;28;20069;-65
2022/06/17 02:56:52;;;;;;;9.75;5.55;;;;;;;14.03;100.00;102308.41;10224749;28;20042;-64
2022/06/17 03:01:51;;;;;;;9.32;5.53;;;;;;;13.98;100.00;102288.44;10221141;28;20095;-64
2022/06/17 03:06:52;;;;;;;7.72;4.95;;;;;;;13.91;100.00;102288.81;10222617;28;20073;-64
2022/06/17 03:12:02;;;;;;;12.20;5.35;;;;;;;13.85;100.00;102301.00;10240714;28;20069;-64
2022/06/17 03:17:01;;;;;;;8.82;5.82;;;;;;;13.80;100.00;102304.66;10216784;28;20135;-64
2022/06/17 03:21:57;;;;;;;11.00;6.13;;;;;;;13.76;100.00;102309.16;10225256;28;20076;-64
2022/06/17 03:27:01;;;;;;;10.90;5.93;;;;;;;13.74;100.00;102307.81;10217342;28;20171;-64
2022/06/17 03:32:05;;;;;;;11.35;5.80;;;;;;;13.74;100.00;102303.16;10223893;28;20053;-65
2022/06/17 03:37:13;;;;;;;11.40;5.82;;;;;;;13.77;100.00;102305.28;10222768;28;20528;-64
2022/06/17 03:42:15;;;;;;;15.38;7.28;;;;;;;13.89;100.00;102297.38;10224361;28;20044;-64
2022/06/17 03:47:50;;;;;;;13.90;6.97;;;;;;;13.99;100.00;102310.09;10214946;28;20045;-64
2022/06/17 03:52:52;;;;;;;9.57;6.97;;;;;;;14.09;100.00;102307.19;10220980;28;20509;-65
2022/06/17 03:57:53;;;;;;;11.43;7.32;;;;;;;14.12;100.00;102307.72;10223009;28;20053;-65
2022/06/17 04:02:51;;;;;;;12.07;6.88;;;;;;;14.20;100.00;102312.50;10221281;28;20051;-65
2022/06/17 04:07:48;;;;;;;11.15;6.45;;;;;;;14.20;100.00;102302.31;10210968;28;20560;-65
2022/06/17 04:12:48;;;;;;;9.75;6.20;;;;;;;14.21;100.00;102303.13;10219584;28;20120;-64
2022/06/17 04:17:48;;;;;;;9.95;5.95;;;;;;;14.21;100.00;102303.13;10220728;28;20049;-63
2022/06/17 04:22:48;;;;;;;10.35;5.90;;;;;;;14.28;100.00;102298.03;10220917;28;20038;-65
2022/06/17 04:27:57;;;;;;;15.15;7.68;;;;;;;14.33;100.00;102295.19;10209644;28;20045;-65
2022/06/17 04:33:01;;;;;;;12.15;6.97;;;;;;;14.29;100.00;102307.91;10193891;28;20104;-64
2022/06/17 04:37:58;;;;;;;10.07;6.82;;;;;;;14.34;100.00;102302.31;10191526;28;20066;-65
2022/06/17 04:42:57;;;;;;;14.70;7.53;;;;;;;14.42;100.00;102301.63;10207770;28;20039;-63
2022/06/17 04:47:55;;;;;;;14.98;7.22;;;;;;;14.53;100.00;102297.53;10224710;28;20053;-64
2022/06/17 04:52:54;;;;;;;15.70;7.78;;;;;;;14.63;100.00;102304.00;10223396;28;20050;-64
2022/06/17 04:57:51;;;;;;;11.85;8.30;;;;;;;14.61;100.00;102296.03;10215385;28;20096;-66
2022/06/17 05:02:48;;;;;;;12.80;6.90;;;;;;;14.72;100.00;102300.22;10229573;28;20084;-66
2022/06/17 05:07:48;;;;;;;17.90;10.70;;;;;;;14.75;100.00;102298.78;10224141;28;20115;-67
2022/06/17 05:13:27;;;;;;;12.57;8.77;;;;;;;14.80;100.00;102315.19;10218576;28;20104;-66
2022/06/17 05:18:23;;;;;;;13.30;8.93;;;;;;;14.85;100.00;102308.75;10226305;28;20068;-66
2022/06/17 05:23:20;;;;;;;14.30;8.90;;;;;;;14.96;100.00;102317.63;10223786;28;20623;-67
2022/06/17 05:28:20;;;;;;;16.10;8.57;;;;;;;15.06;100.00;102320.13;10227216;28;20832;-66
2022/06/17 05:33:17;;;;;;;14.45;9.98;;;;;;;15.10;100.00;102323.91;10224671;28;20065;-67
2022/06/17 05:38:14;;;;;;;17.90;9.93;;;;;;;15.18;100.00;102325.13;10223941;28;20037;-68
2022/06/17 05:43:11;;;;;;;15.70;10.05;;;;;;;15.15;100.00;102326.56;10224716;28;20049;-69
2022/06/17 05:48:08;;;;;;;16.40;9.70;;;;;;;15.21;100.00;102319.81;10223736;28;20454;-69
2022/06/17 05:53:08;;;;;;;16.00;8.50;;;;;;;15.30;100.00;102319.91;10229089;28;20501;-68
2022/06/17 05:58:05;;;;;;;15.07;8.02;;;;;;;15.35;100.00;102323.34;10221255;28;20064;-68
2022/06/17 06:03:05;;;;;;;11.73;6.68;;;;;;;15.44;100.00;102323.41;10227991;28;20124;-67
2022/06/17 06:08:02;;;;;;;13.98;7.72;;;;;;;15.50;100.00;102318.59;10207580;28;20541;-67
2022/06/17 06:13:04;;;;;;;13.65;7.00;;;;;;;15.61;100.00;102322.72;10210275;28;20057;-68
2022/06/17 06:18:01;;;;;;;19.13;7.28;;;;;;;15.69;100.00;102322.00;10215732;28;20050;-67
2022/06/17 06:22:57;;;;;;;11.88;6.47;;;;;;;15.85;100.00;102332.66;10224906;28;20049;-69
2022/06/17 06:27:54;;;;;;;10.60;4.80;;;;;;;15.89;100.00;102334.47;10224742;28;20744;-69
2022/06/17 06:32:54;;;;;;;9.90;4.18;;;;;;;15.97;100.00;102335.66;10219645;28;20072;-69
2022/06/17 06:37:51;;;;;;;11.20;4.95;;;;;;;16.10;100.00;102336.69;10225172;28;20053;-69
2022/06/17 06:42:50;;;;;;;8.32;3.72;;;;;;;16.19;100.00;102332.84;10222244;28;20038;-69
2022/06/17 06:47:47;;;;;;;9.27;4.22;;;;;;;16.30;100.00;102349.16;10213976;28;20088;-68
2022/06/17 06:52:44;;;;;;;10.75;4.10;;;;;;;16.36;100.00;102339.59;10220764;28;20140;-68
2022/06/17 06:57:48;;;;;;;7.43;3.65;;;;;;;16.51;100.00;102341.94;10217316;28;20204;-68
2022/06/17 07:02:44;;;;;;;10.82;3.40;;;;;;;16.67;100.00;102341.50;10214269;28;20049;-68
2022/06/17 07:07:41;;;;;;;10.02;3.83;;;;;;;16.75;100.00;102338.75;10217147;28;20101;-68
2022/06/17 07:12:38;;;;;;;9.63;4.20;;;;;;;16.87;100.00;102329.88;10210037;28;20321;-68
2022/06/17 07:17:35;;;;;;;10.95;3.33;;;;;;;16.99;100.00;102321.81;10213267;28;20073;-68
2022/06/17 07:22:31;;;;;;;7.82;3.72;;;;;;;17.15;100.00;102319.38;10210140;28;20083;-68
2022/06/17 07:27:28;;;;;;;6.13;2.60;;;;;;;17.24;97.13;102311.06;10214525;28;20049;-68
2022/06/17 07:32:24;;;;;;;6.28;2.70;;;;;;;17.31;96.06;102316.94;10218333;28;20050;-68
2022/06/17 07:42:39;;;;;;;7.50;3.00;;;;;;;17.56;95.90;102315.31;10222808;28;20544;-69
2022/06/17 07:47:36;;;;;;;6.60;2.90;;;;;;;17.66;96.44;102305.84;10220515;28;20053;-69
2022/06/17 07:52:32;;;;;;;8.30;2.90;;;;;;;17.79;95.72;102299.31;10214372;28;20037;-68
2022/06/17 07:57:29;;;;;;;7.88;2.50;;;;;;;17.92;96.50;102297.56;10223038;28;20049;-68
2022/06/17 08:02:25;;;;;;;6.47;2.92;;;;;;;18.13;96.39;102303.19;10216535;28;20080;-68
2022/06/17 08:07:22;;;;;;;11.77;2.97;;;;;;;18.19;93.01;102296.31;10222315;28;20455;-68
2022/06/17 08:12:19;;;;;;;6.18;2.30;;;;;;;18.33;88.85;102293.31;10218433;28;20141;-68
2022/06/17 08:17:17;;;;;;;7.82;3.28;;;;;;;18.41;87.37;102286.13;10212006;28;20286;-68
2022/06/17 08:22:13;;;;;;;6.13;2.25;;;;;;;18.58;90.59;102296.31;10220278;28;20095;-68
2022/06/17 08:27:11;;;;;;;10.65;2.17;;;;;;;18.84;90.42;102282.31;10217695;28;20084;-69
2022/06/17 08:37:24;;;;;;;7.25;2.25;;;;;;;19.46;87.79;102280.69;10219806;28;20049;-69
2022/06/17 08:42:42;;;;;;;7.50;3.10;;;;;;;19.71;83.63;102267.75;10224839;28;20151;-68
2022/06/17 08:47:45;;;;;;;6.70;1.95;;;;;;;20.02;82.71;102263.63;10208896;28;20053;-68
2022/06/17 08:53:33;;;;;;;6.05;2.50;;;;;;;20.11;79.54;102270.69;10219427;28;20049;-69
2022/06/17 08:59:08;;;;;;;8.18;2.72;;;;;;;20.18;80.56;102268.16;10215792;28;20092;-69
2022/06/17 09:04:04;;;;;;;4.70;1.75;;;;;;;20.36;85.29;102267.94;10199198;28;20081;-69
2022/06/17 09:09:25;;;;;;;7.63;2.30;;;;;;;20.46;79.89;102272.22;10214503;28;20076;-70
2022/06/17 09:14:58;;;;;;;13.05;7.32;;;;;;;20.60;80.07;102267.13;10218327;28;20049;-70
2022/06/17 09:19:59;;;;;;;7.25;2.60;;;;;;;20.63;77.44;102265.63;10212789;28;20041;-69
2022/06/17 09:25:04;;;;;;;6.57;1.93;;;;;;;20.71;77.16;102262.72;10222713;28;20172;-69
2022/06/17 09:30:11;;;;;;;5.30;2.13;;;;;;;20.94;74.39;102265.00;10231485;28;20666;-69
2022/06/17 09:35:32;;;;;;;5.97;2.17;;;;;;;21.17;71.72;102263.31;10221708;28;20060;-69
2022/06/17 09:40:37;;;;;;;5.25;2.65;;;;;;;21.23;69.13;102261.06;10224950;28;20103;-69
2022/06/17 09:45:39;;;;;;;6.90;2.60;;;;;;;21.13;71.55;102262.38;10216096;28;20057;-69
2022/06/17 09:50:45;;;;;;;7.00;3.03;;;;;;;21.30;73.09;102263.25;10222600;28;20133;-69
2022/06/17 09:55:48;;;;;;;10.48;3.55;;;;;;;21.32;74.76;102258.94;10225793;28;20062;-69
2022/06/17 10:00:53;;;;;;;6.63;2.95;;;;;;;21.47;78.64;102267.72;10227697;28;20656;-68
2022/06/17 10:05:56;;;;;;;6.82;3.17;;;;;;;21.59;74.65;102260.13;10225552;28;20041;-68
2022/06/17 10:11:25;;;;;;;8.38;2.80;;;;;;;21.76;77.22;102260.97;10226283;28;20061;-68
2022/06/17 10:22:09;;;;;;;6.00;3.17;;;;;;;22.10;68.47;102264.22;10216126;28;20050;-69
2022/06/17 10:27:45;;;;;;;5.90;3.00;;;;;;;22.16;67.11;102273.91;10210560;28;20593;-69
2022/06/17 10:32:51;;;;;;;;;;;;;;;22.21;67.50;102259.72;10203370;28;20065;-69
2022/06/17 10:37:49;;;;;;;7.68;4.30;;;;;;;22.10;62.46;102258.66;10216447;28;20011;-68
2022/06/17 10:42:53;;;;;;;7.63;3.28;;;;;;;22.40;61.21;102256.22;10216810;28;20745;-67
2022/06/17 10:48:00;;;;;;;7.55;3.47;;;;;;;22.98;57.12;102252.75;10213436;28;20145;-68
2022/06/17 10:53:33;;;;;;;6.97;3.50;;;;;;;22.86;58.25;102257.28;10226039;28;20111;-68
2022/06/17 10:58:33;;;;;;;;;;;;;;;22.65;56.52;102245.63;10212627;28;21400;-68
2022/06/17 11:03:34;;;;;;;9.30;3.65;;;;;;;22.61;56.47;102244.78;10217514;28;20377;-68
2022/06/17 11:08:52;;;;;;;7.50;3.47;;;;;;;22.58;58.53;102239.91;10216767;28;20053;-68
2022/06/17 11:13:50;;;;;;;7.03;3.55;;;;;;;22.61;61.22;102241.97;10220465;28;20088;-68
2022/06/17 11:18:55;;;;;;;7.82;3.72;;;;;;;22.56;57.45;102237.50;10222611;28;20493;-68
2022/06/17 11:23:54;;;;;;;8.68;3.25;;;;;;;22.60;57.18;102232.78;10218499;28;20139;-68
2022/06/17 11:29:03;;;;;;;7.07;3.47;;;;;;;22.58;56.80;102234.31;10224667;28;20575;-68
2022/06/17 11:34:12;;;;;;;6.30;3.30;;;;;;;22.56;55.18;102231.09;10219284;28;20065;-68
2022/06/17 11:39:34;;;;;;;7.15;3.20;;;;;;;22.41;55.60;102229.97;10223039;28;20100;-69
2022/06/17 11:44:31;;;;;;;5.80;2.57;;;;;;;22.48;57.03;102230.94;10214296;28;20057;-68
2022/06/17 11:49:34;;;;;;;7.30;2.70;;;;;;;22.58;58.20;102237.13;10216815;28;20141;-68
2022/06/17 11:54:45;;;;;;;8.43;2.80;;;;;;;22.59;57.40;102231.19;10219045;28;21551;-68
2022/06/17 11:59:46;;;;;;;7.93;3.00;;;;;;;22.62;57.10;102224.06;10221707;28;20103;-68
2022/06/17 12:04:55;;;;;;;10.95;3.53;;;;;;;22.56;55.22;102231.09;10215213;28;20053;-68
2022/06/17 12:10:01;;;;;;;5.25;3.25;;;;;;;22.44;56.08;102235.63;10221744;28;20482;-68
2022/06/17 12:15:20;;;;;;;9.80;3.00;;;;;;;22.42;55.09;102229.63;10217573;28;20058;-68
2022/06/17 12:20:17;;;;;;;8.52;2.75;;;;;;;22.37;55.85;102234.66;10224130;28;20049;-68
2022/06/17 12:25:37;;;;;;;5.80;2.53;;;;;;;22.40;55.23;102234.75;10216295;28;20045;-68
2022/06/17 12:30:45;;;;;;;7.18;2.35;;;;;;;22.35;56.70;102240.59;10215062;28;20562;-68
2022/06/17 12:35:50;;;;;;;4.97;2.20;;;;;;;22.40;55.58;102234.75;10212215;28;20049;-68
2022/06/17 12:40:54;;;;;;;5.68;2.08;;;;;;;22.58;58.18;102245.47;10221862;28;20061;-68
2022/06/17 12:46:17;;;;;;;10.77;3.65;;;;;;;22.69;55.94;102246.53;10213288;28;20536;-68
2022/06/17 12:57:12;;;;;;;4.88;2.15;;;;;;;22.94;57.21;102243.50;10217451;28;20813;-68
2022/06/17 13:02:21;;;;;;;5.53;2.60;;;;;;;23.04;56.72;102234.56;10220549;28;20502;-69
2022/06/17 13:07:38;;;;;;;10.15;3.60;;;;;;;23.31;54.63;102233.50;10218458;28;20041;-69
2022/06/17 13:12:39;;;;;;;9.35;3.28;;;;;;;23.60;50.01;102222.91;10221044;28;20073;-69
2022/06/17 13:17:58;;;;;;;6.40;2.80;;;;;;;23.83;51.61;102196.97;10225986;28;20045;-69
2022/06/17 13:23:03;;;;;;;8.05;2.33;;;;;;;24.07;54.18;102198.56;10223866;28;20148;-70
2022/06/17 13:28:06;;;;;;;9.75;3.67;;;;;;;24.12;50.58;102196.25;10222353;28;20821;-69
2022/06/17 13:33:14;;;;;;;9.52;3.95;;;;;;;24.24;52.14;102184.06;10220012;28;21409;-70
2022/06/17 13:38:31;;;;;;;5.35;2.88;;;;;;;24.11;52.28;102169.50;10216203;28;20413;-69
2022/06/17 13:43:35;;;;;;;7.53;3.30;;;;;;;23.87;51.77;102164.34;10226912;28;20958;-67
2022/06/17 13:48:51;;;;;;;7.88;3.33;;;;;;;23.92;52.17;102156.44;10220523;28;20053;-69
2022/06/17 13:54:03;;;;;;;6.82;2.53;;;;;;;23.96;52.39;102147.31;10218478;28;20128;-69
2022/06/17 13:59:03;;;;;;;6.97;2.58;;;;;;;23.84;52.62;102148.34;10228435;28;20053;-69
2022/06/17 14:04:01;;;;;;;9.00;2.80;;;;;;;23.73;51.22;102150.91;10220198;28;20128;-69
2022/06/17 14:09:06;;;;;;;6.05;2.88;;;;;;;23.44;53.26;102152.41;10222208;28;20156;-69
2022/06/17 14:14:19;;;;;;;6.95;2.78;;;;;;;23.40;52.93;102151.56;10218425;28;20053;-69
2022/06/17 14:19:23;;;;;;;6.43;2.40;;;;;;;23.46;53.51;102150.88;10216330;28;20451;-69
2022/06/17 14:24:44;;;;;;;5.35;2.30;;;;;;;23.53;54.03;102152.97;10203832;28;20133;-70
2022/06/17 14:29:41;;;;;;;7.43;2.90;;;;;;;23.46;53.32;102145.28;10217841;28;20056;-69
2022/06/17 14:34:40;;;;;;;5.38;2.30;;;;;;;23.51;54.51;102142.19;10222987;28;20076;-70
2022/06/17 14:39:39;;;;;;;5.07;2.30;;;;;;;23.68;54.74;102135.28;10225229;28;20072;-70
2022/06/17 14:44:40;;;;;;;7.15;2.83;;;;;;;23.76;52.98;102130.63;10214758;28;20695;-70
2022/06/17 14:49:43;;;;;;;7.10;2.13;;;;;;;23.65;53.07;102144.41;10217069;28;20069;-70
2022/06/17 14:54:40;;;;;;;6.25;2.40;;;;;;;23.61;53.29;102135.16;10215406;28;20072;-70
2022/06/17 14:59:40;;;;;;;4.53;2.13;;;;;;;23.61;53.98;102129.59;10221903;28;20075;-70
2022/06/17 15:04:45;;;;;;;8.75;2.28;;;;;;;23.50;52.86;102134.19;10220534;28;20052;-70
2022/06/17 15:09:49;;;;;;;6.63;2.20;;;;;;;23.41;54.03;102136.41;10216139;28;20061;-68
2022/06/17 15:15:12;;;;;;;9.50;3.40;;;;;;;23.29;54.51;102129.81;10214669;28;20045;-68
2022/06/17 15:20:18;;;;;;;5.30;2.40;;;;;;;23.26;55.78;102133.38;10213336;28;20084;-67
2022/06/17 15:25:35;;;;;;;6.25;2.58;;;;;;;23.22;54.73;102124.13;10214446;28;20111;-70
2022/06/17 15:30:36;;;;;;;7.18;2.35;;;;;;;23.18;55.00;102128.81;10206256;28;20458;-69
2022/06/17 15:35:33;;;;;;;9.73;2.97;;;;;;;23.04;53.68;102121.00;10210781;28;20141;-70
2022/06/17 15:40:35;;;;;;;6.45;2.22;;;;;;;23.05;55.51;102113.44;10215572;28;20046;-70
2022/06/17 15:45:32;;;;;;;4.45;2.03;;;;;;;23.03;54.28;102099.06;10218539;28;20863;-70
2022/06/17 15:50:39;;;;;;;8.05;2.88;;;;;;;22.99;55.16;102103.75;10218584;28;20095;-70
2022/06/17 15:55:40;;;;;;;7.45;2.25;;;;;;;23.03;56.66;102088.72;10216952;28;20045;-69
2022/06/17 16:00:57;;;;;;;4.93;2.25;;;;;;;23.05;56.60;102093.94;10213899;28;20049;-70
2022/06/17 16:06:01;;;;;;;6.38;2.38;;;;;;;23.04;55.34;102081.13;10221682;28;20061;-70
2022/06/17 16:11:24;;;;;;;6.82;2.40;;;;;;;23.03;54.38;102082.34;10221923;28;20099;-69
2022/06/17 16:16:44;;;;;;;6.07;2.38;;;;;;;23.05;55.61;102063.25;10221310;28;20076;-69
2022/06/17 16:22:06;;;;;;;6.30;1.95;;;;;;;23.16;55.73;102053.09;10217276;28;20475;-70
2022/06/17 16:27:22;;;;;;;6.88;2.83;;;;;;;23.26;55.95;102051.66;10215364;28;20050;-70
2022/06/17 16:32:22;;;;;;;7.13;2.45;;;;;;;23.23;54.13;102042.03;10213572;28;20565;-71
2022/06/17 16:37:26;;;;;;;5.28;2.47;;;;;;;23.15;55.59;102028.34;10221578;28;20058;-70
2022/06/17 16:47:39;;;;;;;6.90;2.30;;;;;;;23.05;57.59;102024.19;10211801;28;20053;-71
2022/06/17 16:52:35;;;;;;;7.80;2.40;;;;;;;23.04;53.37;102028.16;10217653;28;20042;-71
2022/06/17 16:57:34;;;;;;;6.32;1.95;;;;;;;22.97;52.95;102022.41;10217302;28;20077;-70
2022/06/17 17:02:31;;;;;;;7.32;2.33;;;;;;;22.90;54.65;102026.69;10217410;28;20045;-71
2022/06/17 17:07:28;;;;;;;4.32;1.75;;;;;;;22.86;54.44;102020.25;10213320;28;20725;-70
2022/06/17 17:12:24;;;;;;;5.20;1.98;;;;;;;22.78;55.04;102024.06;10211181;28;20049;-70
2022/06/17 17:17:21;;;;;;;4.35;1.95;;;;;;;22.74;55.77;102011.25;10219450;28;20045;-71
2022/06/17 17:22:21;;;;;;;7.50;2.17;;;;;;;22.76;55.39;102023.63;10218562;28;20095;-70
2022/06/17 17:27:18;;;;;;;6.38;1.88;;;;;;;22.72;55.21;102011.63;10219418;28;20069;-71
2022/06/17 17:32:15;;;;;;;7.70;2.75;;;;;;;22.65;57.27;101991.97;10220951;28;20413;-71
2022/06/17 17:37:13;;;;;;;5.25;1.80;;;;;;;22.59;57.97;101990.69;10219560;28;20107;-71
2022/06/17 17:42:10;;;;;;;5.85;2.30;;;;;;;22.58;57.95;101977.91;10207721;28;20048;-69
2022/06/17 17:47:13;;;;;;;5.38;2.15;;;;;;;22.53;61.95;101978.22;10225363;28;20041;-71
2022/06/17 17:52:10;;;;;;;6.05;2.00;;;;;;;22.46;61.38;101976.91;10219713;28;20046;-71
2022/06/17 17:57:07;;;;;;;5.97;2.58;;;;;;;22.41;62.04;101971.63;10218186;28;20078;-70
2022/06/17 18:02:04;;;;;;;6.32;2.42;;;;;;;22.40;61.96;101972.81;10221684;28;20046;-70
2022/06/17 18:07:00;;;;;;;7.18;2.30;;;;;;;22.34;63.08;101963.13;10210426;28;20558;-70
2022/06/17 18:11:57;;;;;;;9.52;2.65;;;;;;;22.32;63.17;101953.53;10221167;28;20077;-71
2022/06/17 18:16:54;;;;;;;6.80;2.50;;;;;;;22.28;69.88;101959.06;10219899;28;20053;-70
2022/06/17 18:21:52;;;;;;;5.40;2.40;;;;;;;22.25;67.69;101931.91;10226498;28;20072;-70
2022/06/17 18:26:58;;;;;;;4.32;2.10;;;;;;;22.23;75.73;101926.72;10215057;28;20096;-71
2022/06/17 18:31:55;;;;;;;5.50;2.67;;;;;;;22.14;73.48;101926.13;10226519;28;20046;-71
2022/06/17 18:36:51;;;;;;;6.38;1.88;;;;;;;22.09;72.44;101922.81;10221692;28;20080;-71
2022/06/17 18:47:04;;;;;;;6.05;2.53;;;;;;;22.02;73.68;101904.81;10211090;28;20049;-70
2022/06/17 18:52:00;;;;;;;6.60;2.53;;;;;;;22.00;74.87;101882.09;10223525;28;20481;-71
2022/06/17 18:56:57;;;;;;;5.15;2.15;;;;;;;21.96;75.96;101874.84;10221585;28;20057;-71
2022/06/17 19:01:55;;;;;;;6.20;2.35;;;;;;;21.89;83.64;101886.63;10214009;28;20621;-70
2022/06/17 19:06:52;;;;;;;12.82;3.58;;;;;;;21.82;79.37;101892.06;10216780;28;20115;-70
2022/06/17 19:17:23;;;;;;;5.88;2.70;;;;;;;21.68;87.45;101891.78;10216694;28;20136;-71
2022/06/17 19:22:22;;;;;;;5.80;2.80;;;;;;;21.63;87.32;101879.75;10213583;28;20049;-70
2022/06/17 19:27:19;;;;;;;7.90;4.05;;;;;;;21.60;87.75;101880.47;10219225;28;20613;-70
2022/06/17 19:32:20;;;;;;;8.93;2.70;;;;;;;21.55;86.66;101872.41;10211307;28;20521;-70
2022/06/17 19:37:18;;;;;;;6.70;2.88;;;;;;;21.45;91.81;101867.44;10218942;28;20575;-71
2022/06/17 19:42:17;;;;;;;9.15;3.10;;;;;;;21.39;89.83;101852.16;10198449;28;20136;-70
2022/06/17 19:47:18;;;;;;;5.90;3.35;;;;;;;21.33;90.41;101856.41;10211831;28;20449;-70
2022/06/17 19:52:21;;;;;;;5.85;2.85;;;;;;;21.27;92.55;101855.09;10209468;28;20052;-71
2022/06/17 19:57:18;;;;;;;5.38;2.60;;;;;;;21.21;94.01;101846.19;10211333;28;20099;-70
2022/06/17 20:02:21;;;;;;;10.48;3.53;;;;;;;21.13;92.37;101839.69;10208185;28;20048;-70
2022/06/17 20:07:19;;;;;;;;;;;;;;;21.07;93.69;101830.00;10203887;28;20047;-69
2022/06/17 20:12:17;;;;;;;7.03;2.75;;;;;;;20.97;98.11;101841.69;10199568;28;19921;-71
2022/06/17 20:17:14;;;;;;;7.05;2.72;;;;;;;20.89;98.26;101840.72;10202609;28;20064;-71
2022/06/17 20:22:15;;;;;;;5.90;2.45;;;;;;;20.81;100.00;101850.84;10203681;28;20183;-70
2022/06/17 20:27:17;;;;;;;10.02;3.10;;;;;;;20.76;100.00;101837.25;10210138;28;20084;-70
2022/06/17 20:32:15;;;;;;;;;;;;;;;20.72;100.00;101830.78;10204385;28;20053;-71
2022/06/17 20:37:15;;;;;;;6.07;3.22;;;;;;;20.65;100.00;101825.06;10205309;28;20007;-71
2022/06/17 20:42:18;;;;;;;5.20;3.13;;;;;;;20.56;100.00;101828.03;10208969;28;20198;-70
2022/06/17 20:52:31;;;;;;;5.60;2.65;;;;;;;20.42;100.00;101827.63;10207793;28;20103;-69
2022/06/17 21:02:45;;;;;;;6.30;2.80;;;;;;;20.31;100.00;101816.28;10202024;28;20046;-70
2022/06/17 21:07:43;;;;;;;8.35;3.35;;;;;;;20.23;100.00;101808.91;10200521;28;20069;-70
2022/06/17 21:12:39;;;;;;;5.90;3.60;;;;;;;20.14;100.00;101799.94;10209296;28;20073;-70
2022/06/17 21:17:36;;;;;;;7.47;3.60;;;;;;;20.06;100.00;101798.16;10211778;28;20100;-70
2022/06/17 21:22:35;;;;;;;9.27;3.35;;;;;;;19.99;100.00;101790.44;10219973;28;20081;-69
2022/06/17 21:27:32;;;;;;;8.07;3.47;;;;;;;19.86;100.00;101800.00;10216983;28;20045;-70
2022/06/17 21:32:28;;;;;;;9.35;3.20;;;;;;;19.75;100.00;101799.72;10202711;28;20128;-70
2022/06/17 21:37:25;;;;;;;5.85;2.97;;;;;;;19.71;100.00;101793.25;10205829;28;20055;-70
2022/06/17 21:42:21;;;;;;;5.75;3.40;;;;;;;19.65;100.00;101791.88;10212080;28;20107;-70
2022/06/17 21:47:18;;;;;;;6.65;3.05;;;;;;;19.60;100.00;101783.81;10206026;28;20085;-69
2022/06/17 21:52:18;;;;;;;6.72;3.20;;;;;;;19.54;100.00;101772.97;10213603;28;20628;-69
2022/06/17 21:57:19;;;;;;;6.20;2.92;;;;;;;19.49;100.00;101775.16;10218124;28;20491;-70
2022/06/17 22:02:19;;;;;;;7.97;3.10;;;;;;;19.44;100.00;101770.69;10200616;28;20544;-69
2022/06/17 22:07:19;;;;;;;5.45;3.08;;;;;;;19.43;100.00;101771.84;10199303;28;20033;-69
2022/06/17 22:12:20;;;;;;;8.63;3.05;;;;;;;19.36;100.00;101755.03;10215511;28;20042;-68
2022/06/17 22:17:18;;;;;;;5.28;2.60;;;;;;;19.34;100.00;101751.78;10220237;28;20124;-70
2022/06/17 22:22:15;;;;;;;6.38;2.70;;;;;;;19.31;100.00;101752.50;10226786;28;20054;-69
2022/06/17 22:27:18;;;;;;;6.10;2.80;;;;;;;19.26;100.00;101738.88;10218877;28;20115;-70
2022/06/17 22:32:19;;;;;;;4.28;2.35;;;;;;;19.17;100.00;101733.50;10218530;28;20440;-70
2022/06/17 22:37:17;;;;;;;5.00;2.70;;;;;;;19.16;100.00;101729.09;10219459;28;20045;-69
2022/06/17 22:42:16;;;;;;;6.35;2.38;;;;;;;19.11;100.00;101719.06;10224774;28;20037;-69
2022/06/17 22:47:21;;;;;;;5.97;3.35;;;;;;;19.09;100.00;101712.25;10222250;28;20095;-70
2022/06/17 22:52:19;;;;;;;5.75;3.30;;;;;;;18.97;100.00;101702.00;10209291;28;20494;-69
2022/06/17 22:57:23;;;;;;;7.18;3.63;;;;;;;18.86;100.00;101698.91;10216645;28;20087;-69
2022/06/17 23:02:29;;;;;;;6.72;3.33;;;;;;;18.78;100.00;101690.78;10221157;28;20128;-69
2022/06/17 23:07:26;;;;;;;6.50;3.45;;;;;;;18.82;100.00;101697.19;10201627;28;20184;-69
2022/06/17 23:12:23;;;;;;;10.50;3.35;;;;;;;18.77;100.00;101689.13;10208846;28;20092;-69
2022/06/17 23:17:25;;;;;;;5.60;3.17;;;;;;;18.72;100.00;101681.84;10213367;28;20049;-69
2022/06/17 23:22:22;;;;;;;7.03;3.38;;;;;;;18.66;100.00;101674.97;10220060;28;20042;-69
2022/06/17 23:27:18;;;;;;;8.32;3.17;;;;;;;18.60;100.00;101668.03;10214455;28;20520;-70
2022/06/17 23:32:18;;;;;;;7.60;3.08;;;;;;;18.50;100.00;101652.72;10214950;28;20045;-69
2022/06/17 23:37:15;;;;;;;5.10;2.92;;;;;;;18.43;100.00;101650.53;10213788;28;20068;-69
2022/06/17 23:42:13;;;;;;;7.18;3.40;;;;;;;18.38;100.00;101645.25;10221892;28;20045;-70
2022/06/17 23:47:17;;;;;;;5.13;3.55;;;;;;;18.34;100.00;101633.25;10214297;28;20505;-70